sensor_id;sensor_type;location;lat;lon;timestamp;P1;P2;P0
78842;PMS5003;70542;53.774;-0.352;2023-11-21T00:04:57;0;0;
78842;PMS5003;70542;53.774;-0.352;2023-11-21T00:10:36;0;0;
78842;PMS5003;70542;53.774;-0.352;2023-11-21T00:16:15;0;0;
78842;PMS5003;70542;53.774;-0.352;2023-11-21T00:21:57;0;0;
78842;PMS5003;70542;53.774;-0.352;2023-11-21T00:27:47;0;0;
78842;PMS5003;70542;53.774;-0.352;2023-11-21T00:33:32;0;0;
78842;PMS5003;70542;53.774;-0.352;2023-11-21T00:39:11;4;4;
78842;PMS5003;70542;53.774;-0.352;2023-11-21T00:44:50;0;0;
78842;PMS5003;70542;53.774;-0.352;2023-11-21T00:56:40;0;0;
78842;PMS5003;70542;53.774;-0.352;2023-11-21T01:02:19;0;0;
78842;PMS5003;70542;53.774;-0.352;2023-11-21T01:07:58;0;0;
78842;PMS5003;70542;53.774;-0.352;2023-11-21T01:13:37;0;0;
78842;PMS5003;70542;53.774;-0.352;2023-11-21T01:19:17;0;0;
78842;PMS5003;70542;53.774;-0.352;2023-11-21T01:24:56;0;0;
78842;PMS5003;70542;53.774;-0.352;2023-11-21T01:30:35;0;0;
78842;PMS5003;70542;53.774;-0.352;2023-11-21T01:36:14;0;0;
78842;PMS5003;70542;53.774;-0.352;2023-11-21T01:41:52;0;0;
78842;PMS5003;70542;53.774;-0.352;2023-11-21T01:47:33;0;0;
78842;PMS5003;70542;53.774;-0.352;2023-11-21T01:53:12;0;0;
78842;PMS5003;70542;53.774;-0.352;2023-11-21T01:58:52;0;0;
78842;PMS5003;70542;53.774;-0.352;2023-11-21T02:04:36;1;1;
78842;PMS5003;70542;53.774;-0.352;2023-11-21T02:10:15;0;0;
78842;PMS5003;70542;53.774;-0.352;2023-11-21T02:15:54;0;0;
78842;PMS5003;70542;53.774;-0.352;2023-11-21T02:21:33;0;0;
78842;PMS5003;70542;53.774;-0.352;2023-11-21T02:27:13;0;0;
78842;PMS5003;70542;53.774;-0.352;2023-11-21T02:32:52;0;0;
78842;PMS5003;70542;53.774;-0.352;2023-11-21T02:38:31;0;0;
78842;PMS5003;70542;53.774;-0.352;2023-11-21T02:44:13;0;0;
78842;PMS5003;70542;53.774;-0.352;2023-11-21T02:49:57;0;0;
78842;PMS5003;70542;53.774;-0.352;2023-11-21T02:55:36;0;0;
78842;PMS5003;70542;53.774;-0.352;2023-11-21T03:01:15;0;0;
78842;PMS5003;70542;53.774;-0.352;2023-11-21T03:06:54;0;0;
78842;PMS5003;70542;53.774;-0.352;2023-11-21T03:12:33;1;1;
78842;PMS5003;70542;53.774;-0.352;2023-11-21T03:18:12;0;0;
78842;PMS5003;70542;53.774;-0.352;2023-11-21T03:23:50;0;0;
78842;PMS5003;70542;53.774;-0.352;2023-11-21T03:29:29;1;1;
78842;PMS5003;70542;53.774;-0.352;2023-11-21T03:35:08;1;1;
78842;PMS5003;70542;53.774;-0.352;2023-11-21T03:40:47;0;0;
78842;PMS5003;70542;53.774;-0.352;2023-11-21T03:46:31;1;1;
78842;PMS5003;70542;53.774;-0.352;2023-11-21T03:52:10;2;2;
78842;PMS5003;70542;53.774;-0.352;2023-11-21T03:57:49;0;0;
78842;PMS5003;70542;53.774;-0.352;2023-11-21T04:03:28;0;0;
78842;PMS5003;70542;53.774;-0.352;2023-11-21T04:09:10;0;0;
78842;PMS5003;70542;53.774;-0.352;2023-11-21T04:14:49;0;0;
78842;PMS5003;70542;53.774;-0.352;2023-11-21T04:20:31;0;0;
78842;PMS5003;70542;53.774;-0.352;2023-11-21T04:26:10;0;0;
78842;PMS5003;70542;53.774;-0.352;2023-11-21T04:31:56;2;2;
78842;PMS5003;70542;53.774;-0.352;2023-11-21T04:37:35;0;0;
78842;PMS5003;70542;53.774;-0.352;2023-11-21T04:43:14;2;2;
78842;PMS5003;70542;53.774;-0.352;2023-11-21T04:48:53;1;1;
78842;PMS5003;70542;53.774;-0.352;2023-11-21T04:54:32;1;1;
78842;PMS5003;70542;53.774;-0.352;2023-11-21T05:00:11;0;0;
78842;PMS5003;70542;53.774;-0.352;2023-11-21T05:05:50;1;1;
78842;PMS5003;70542;53.774;-0.352;2023-11-21T05:11:30;0;0;
78842;PMS5003;70542;53.774;-0.352;2023-11-21T05:17:08;1;1;
78842;PMS5003;70542;53.774;-0.352;2023-11-21T05:22:48;0;0;
78842;PMS5003;70542;53.774;-0.352;2023-11-21T05:28:33;0;0;
78842;PMS5003;70542;53.774;-0.352;2023-11-21T05:34:12;0;0;
78842;PMS5003;70542;53.774;-0.352;2023-11-21T05:39:50;0;0;
78842;PMS5003;70542;53.774;-0.352;2023-11-21T05:45:29;0;0;
78842;PMS5003;70542;53.774;-0.352;2023-11-21T05:51:08;4;4;
78842;PMS5003;70542;53.774;-0.352;2023-11-21T05:56:46;0;0;
78842;PMS5003;70542;53.774;-0.352;2023-11-21T06:02:25;0;0;
78842;PMS5003;70542;53.774;-0.352;2023-11-21T06:08:14;0;0;
78842;PMS5003;70542;53.774;-0.352;2023-11-21T06:13:52;1;1;
78842;PMS5003;70542;53.774;-0.352;2023-11-21T06:19:31;3;3;
78842;PMS5003;70542;53.774;-0.352;2023-11-21T06:25:11;0;0;
78842;PMS5003;70542;53.774;-0.352;2023-11-21T06:30:56;1;1;
78842;PMS5003;70542;53.774;-0.352;2023-11-21T06:36:35;2;2;
78842;PMS5003;70542;53.774;-0.352;2023-11-21T06:42:14;0;0;
78842;PMS5003;70542;53.774;-0.352;2023-11-21T06:47:54;1;1;
78842;PMS5003;70542;53.774;-0.352;2023-11-21T06:53:33;1;1;
78842;PMS5003;70542;53.774;-0.352;2023-11-21T06:59:12;2;2;
78842;PMS5003;70542;53.774;-0.352;2023-11-21T07:04:51;2;2;
78842;PMS5003;70542;53.774;-0.352;2023-11-21T07:10:30;0;0;
78842;PMS5003;70542;53.774;-0.352;2023-11-21T07:16:09;1;1;
78842;PMS5003;70542;53.774;-0.352;2023-11-21T07:21:48;2;2;
78842;PMS5003;70542;53.774;-0.352;2023-11-21T07:27:27;2;2;
78842;PMS5003;70542;53.774;-0.352;2023-11-21T07:33:11;2;0;
78842;PMS5003;70542;53.774;-0.352;2023-11-21T07:38:51;1;1;
78842;PMS5003;70542;53.774;-0.352;2023-11-21T07:44:30;3;3;
78842;PMS5003;70542;53.774;-0.352;2023-11-21T07:50:14;1;1;
78842;PMS5003;70542;53.774;-0.352;2023-11-21T07:55:53;1;1;
78842;PMS5003;70542;53.774;-0.352;2023-11-21T08:01:33;3;3;
78842;PMS5003;70542;53.774;-0.352;2023-11-21T08:07:12;10;6;
78842;PMS5003;70542;53.774;-0.352;2023-11-21T08:12:56;0;0;
78842;PMS5003;70542;53.774;-0.352;2023-11-21T08:18:35;1;1;
78842;PMS5003;70542;53.774;-0.352;2023-11-21T08:24:14;2;2;
78842;PMS5003;70542;53.774;-0.352;2023-11-21T08:29:57;0;0;
78842;PMS5003;70542;53.774;-0.352;2023-11-21T08:35:35;0;0;
78842;PMS5003;70542;53.774;-0.352;2023-11-21T08:41:15;5;5;
78842;PMS5003;70542;53.774;-0.352;2023-11-21T08:46:57;4;4;
78842;PMS5003;70542;53.774;-0.352;2023-11-21T08:52:36;6;2;
78842;PMS5003;70542;53.774;-0.352;2023-11-21T08:58:18;1;1;
78842;PMS5003;70542;53.774;-0.352;2023-11-21T09:03:57;0;0;
78842;PMS5003;70542;53.774;-0.352;2023-11-21T09:09:41;1;1;
78842;PMS5003;70542;53.774;-0.352;2023-11-21T09:22:41;0;0;
78842;PMS5003;70542;53.774;-0.352;2023-11-21T09:28:28;1;1;
78842;PMS5003;70542;53.774;-0.352;2023-11-21T09:34:14;0;0;
78842;PMS5003;70542;53.774;-0.352;2023-11-21T09:39:53;0;0;
78842;PMS5003;70542;53.774;-0.352;2023-11-21T09:45:32;0;0;
78842;PMS5003;70542;53.774;-0.352;2023-11-21T09:51:13;0;0;
78842;PMS5003;70542;53.774;-0.352;2023-11-21T09:56:57;0;0;
78842;PMS5003;70542;53.774;-0.352;2023-11-21T10:02:37;0;0;
78842;PMS5003;70542;53.774;-0.352;2023-11-21T10:08:22;0;0;
78842;PMS5003;70542;53.774;-0.352;2023-11-21T10:14:02;0;0;
78842;PMS5003;70542;53.774;-0.352;2023-11-21T10:19:41;0;0;
78842;PMS5003;70542;53.774;-0.352;2023-11-21T10:25:21;1;1;
78842;PMS5003;70542;53.774;-0.352;2023-11-21T10:31:00;0;0;
78842;PMS5003;70542;53.774;-0.352;2023-11-21T10:36:43;5;5;
78842;PMS5003;70542;53.774;-0.352;2023-11-21T10:42:29;3;3;
78842;PMS5003;70542;53.774;-0.352;2023-11-21T11:00:53;7;7;
78842;PMS5003;70542;53.774;-0.352;2023-11-21T11:06:33;6;3;
78842;PMS5003;70542;53.774;-0.352;2023-11-21T11:13:33;1;1;
78842;PMS5003;70542;53.774;-0.352;2023-11-21T11:19:13;1;1;
78842;PMS5003;70542;53.774;-0.352;2023-11-21T11:25:06;1;1;
78842;PMS5003;70542;53.774;-0.352;2023-11-21T11:31:01;2;2;
78842;PMS5003;70542;53.774;-0.352;2023-11-21T11:37:00;2;2;
78842;PMS5003;70542;53.774;-0.352;2023-11-21T11:48:37;1;1;
78842;PMS5003;70542;53.774;-0.352;2023-11-21T12:00:12;6;6;
78842;PMS5003;70542;53.774;-0.352;2023-11-21T12:05:53;9;6;
78842;PMS5003;70542;53.774;-0.352;2023-11-21T12:11:37;1;1;
78842;PMS5003;70542;53.774;-0.352;2023-11-21T12:17:39;6;6;
78842;PMS5003;70542;53.774;-0.352;2023-11-21T12:23:20;1;1;
78842;PMS5003;70542;53.774;-0.352;2023-11-21T12:29:21;0;0;
78842;PMS5003;70542;53.774;-0.352;2023-11-21T12:35:00;1;1;
78842;PMS5003;70542;53.774;-0.352;2023-11-21T12:40:39;3;3;
78842;PMS5003;70542;53.774;-0.352;2023-11-21T12:46:18;4;4;
78842;PMS5003;70542;53.774;-0.352;2023-11-21T12:52:03;2;2;
78842;PMS5003;70542;53.774;-0.352;2023-11-21T12:57:44;0;0;
78842;PMS5003;70542;53.774;-0.352;2023-11-21T13:03:24;0;0;
78842;PMS5003;70542;53.774;-0.352;2023-11-21T13:09:03;1;1;
78842;PMS5003;70542;53.774;-0.352;2023-11-21T13:14:42;0;0;
78842;PMS5003;70542;53.774;-0.352;2023-11-21T13:20:27;3;3;
78842;PMS5003;70542;53.774;-0.352;2023-11-21T13:26:06;9;7;
78842;PMS5003;70542;53.774;-0.352;2023-11-21T13:31:46;2;2;
78842;PMS5003;70542;53.774;-0.352;2023-11-21T13:37:25;1;1;
78842;PMS5003;70542;53.774;-0.352;2023-11-21T13:43:04;1;1;
78842;PMS5003;70542;53.774;-0.352;2023-11-21T13:48:43;3;3;
78842;PMS5003;70542;53.774;-0.352;2023-11-21T13:54:58;1;1;
78842;PMS5003;70542;53.774;-0.352;2023-11-21T14:00:37;1;1;
78842;PMS5003;70542;53.774;-0.352;2023-11-21T14:06:16;1;1;
78842;PMS5003;70542;53.774;-0.352;2023-11-21T14:13:03;1;1;
78842;PMS5003;70542;53.774;-0.352;2023-11-21T14:18:42;1;1;
78842;PMS5003;70542;53.774;-0.352;2023-11-21T14:24:21;1;1;
78842;PMS5003;70542;53.774;-0.352;2023-11-21T14:30:00;3;3;
78842;PMS5003;70542;53.774;-0.352;2023-11-21T14:35:40;1;1;
78842;PMS5003;70542;53.774;-0.352;2023-11-21T14:41:20;0;0;
78842;PMS5003;70542;53.774;-0.352;2023-11-21T14:46:59;4;4;
78842;PMS5003;70542;53.774;-0.352;2023-11-21T14:52:39;3;3;
78842;PMS5003;70542;53.774;-0.352;2023-11-21T14:58:25;1;1;
78842;PMS5003;70542;53.774;-0.352;2023-11-21T15:04:14;2;2;
78842;PMS5003;70542;53.774;-0.352;2023-11-21T15:09:52;0;0;
78842;PMS5003;70542;53.774;-0.352;2023-11-21T15:15:32;7;4;
78842;PMS5003;70542;53.774;-0.352;2023-11-21T15:21:11;4;3;
78842;PMS5003;70542;53.774;-0.352;2023-11-21T15:27:12;1;1;
78842;PMS5003;70542;53.774;-0.352;2023-11-21T15:33:07;6;6;
78842;PMS5003;70542;53.774;-0.352;2023-11-21T15:38:51;10;6;
78842;PMS5003;70542;53.774;-0.352;2023-11-21T15:44:39;21;18;
78842;PMS5003;70542;53.774;-0.352;2023-11-21T15:50:43;12;9;
78842;PMS5003;70542;53.774;-0.352;2023-11-21T15:56:30;4;4;
78842;PMS5003;70542;53.774;-0.352;2023-11-21T16:02:10;5;5;
78842;PMS5003;70542;53.774;-0.352;2023-11-21T16:08:30;1;1;
78842;PMS5003;70542;53.774;-0.352;2023-11-21T16:14:21;4;4;
78842;PMS5003;70542;53.774;-0.352;2023-11-21T16:20:16;4;3;
78842;PMS5003;70542;53.774;-0.352;2023-11-21T16:26:04;1;1;
78842;PMS5003;70542;53.774;-0.352;2023-11-21T16:31:52;3;3;
78842;PMS5003;70542;53.774;-0.352;2023-11-21T16:37:55;7;7;
78842;PMS5003;70542;53.774;-0.352;2023-11-21T16:43:45;6;6;
78842;PMS5003;70542;53.774;-0.352;2023-11-21T16:49:38;4;3;
78842;PMS5003;70542;53.774;-0.352;2023-11-21T16:55:21;12;10;
78842;PMS5003;70542;53.774;-0.352;2023-11-21T17:01:05;7;7;
78842;PMS5003;70542;53.774;-0.352;2023-11-21T17:06:54;8;8;
78842;PMS5003;70542;53.774;-0.352;2023-11-21T17:12:37;5;5;
78842;PMS5003;70542;53.774;-0.352;2023-11-21T17:18:23;12;12;
78842;PMS5003;70542;53.774;-0.352;2023-11-21T17:24:10;11;11;
78842;PMS5003;70542;53.774;-0.352;2023-11-21T17:29:57;15;13;
78842;PMS5003;70542;53.774;-0.352;2023-11-21T17:35:38;14;14;
78842;PMS5003;70542;53.774;-0.352;2023-11-21T17:41:19;8;8;
78842;PMS5003;70542;53.774;-0.352;2023-11-21T17:46:58;11;11;
78842;PMS5003;70542;53.774;-0.352;2023-11-21T17:52:37;8;8;
78842;PMS5003;70542;53.774;-0.352;2023-11-21T17:58:19;17;17;
78842;PMS5003;70542;53.774;-0.352;2023-11-21T18:04:13;15;15;
78842;PMS5003;70542;53.774;-0.352;2023-11-21T18:09:58;11;11;
78842;PMS5003;70542;53.774;-0.352;2023-11-21T18:15:37;12;12;
78842;PMS5003;70542;53.774;-0.352;2023-11-21T18:21:24;20;18;
78842;PMS5003;70542;53.774;-0.352;2023-11-21T18:27:11;19;19;
78842;PMS5003;70542;53.774;-0.352;2023-11-21T18:32:53;27;27;
78842;PMS5003;70542;53.774;-0.352;2023-11-21T18:38:33;31;25;
78842;PMS5003;70542;53.774;-0.352;2023-11-21T18:44:12;19;16;
78842;PMS5003;70542;53.774;-0.352;2023-11-21T18:49:51;39;39;
78842;PMS5003;70542;53.774;-0.352;2023-11-21T18:55:31;21;21;
78842;PMS5003;70542;53.774;-0.352;2023-11-21T19:07:02;54;54;
78842;PMS5003;70542;53.774;-0.352;2023-11-21T19:12:41;67;65;
78842;PMS5003;70542;53.774;-0.352;2023-11-21T19:18:21;44;40;
78842;PMS5003;70542;53.774;-0.352;2023-11-21T19:23:59;49;41;
78842;PMS5003;70542;53.774;-0.352;2023-11-21T19:29:38;33;33;
78842;PMS5003;70542;53.774;-0.352;2023-11-21T19:35:18;21;21;
78842;PMS5003;70542;53.774;-0.352;2023-11-21T19:40:57;17;17;
78842;PMS5003;70542;53.774;-0.352;2023-11-21T19:46:41;28;24;
78842;PMS5003;70542;53.774;-0.352;2023-11-21T19:52:20;15;15;
78842;PMS5003;70542;53.774;-0.352;2023-11-21T19:58:10;19;16;
78842;PMS5003;70542;53.774;-0.352;2023-11-21T20:03:53;15;15;
78842;PMS5003;70542;53.774;-0.352;2023-11-21T20:09:32;12;12;
78842;PMS5003;70542;53.774;-0.352;2023-11-21T20:15:14;23;23;
78842;PMS5003;70542;53.774;-0.352;2023-11-21T20:20:58;20;20;
78842;PMS5003;70542;53.774;-0.352;2023-11-21T20:26:46;16;15;
78842;PMS5003;70542;53.774;-0.352;2023-11-21T20:32:25;12;12;
78842;PMS5003;70542;53.774;-0.352;2023-11-21T20:38:08;12;12;
78842;PMS5003;70542;53.774;-0.352;2023-11-21T20:44:03;13;13;
78842;PMS5003;70542;53.774;-0.352;2023-11-21T20:49:42;15;15;
78842;PMS5003;70542;53.774;-0.352;2023-11-21T20:55:21;32;32;
78842;PMS5003;70542;53.774;-0.352;2023-11-21T21:01:01;27;23;
78842;PMS5003;70542;53.774;-0.352;2023-11-21T21:06:40;47;43;
78842;PMS5003;70542;53.774;-0.352;2023-11-21T21:12:22;22;19;
78842;PMS5003;70542;53.774;-0.352;2023-11-21T21:18:07;33;33;
78842;PMS5003;70542;53.774;-0.352;2023-11-21T21:23:46;30;30;
78842;PMS5003;70542;53.774;-0.352;2023-11-21T21:29:25;25;25;
78842;PMS5003;70542;53.774;-0.352;2023-11-21T21:35:04;24;21;
78842;PMS5003;70542;53.774;-0.352;2023-11-21T21:40:44;12;12;
78842;PMS5003;70542;53.774;-0.352;2023-11-21T21:46:26;16;16;
78842;PMS5003;70542;53.774;-0.352;2023-11-21T21:52:05;14;14;
78842;PMS5003;70542;53.774;-0.352;2023-11-21T21:57:50;25;22;
78842;PMS5003;70542;53.774;-0.352;2023-11-21T22:03:29;17;17;
78842;PMS5003;70542;53.774;-0.352;2023-11-21T22:09:29;22;22;
78842;PMS5003;70542;53.774;-0.352;2023-11-21T22:15:13;14;14;
78842;PMS5003;70542;53.774;-0.352;2023-11-21T22:21:00;18;15;
78842;PMS5003;70542;53.774;-0.352;2023-11-21T22:26:46;11;11;
78842;PMS5003;70542;53.774;-0.352;2023-11-21T22:32:25;20;20;
78842;PMS5003;70542;53.774;-0.352;2023-11-21T22:38:06;22;18;
78842;PMS5003;70542;53.774;-0.352;2023-11-21T22:43:45;18;18;
78842;PMS5003;70542;53.774;-0.352;2023-11-21T22:49:30;33;21;
78842;PMS5003;70542;53.774;-0.352;2023-11-21T22:55:09;27;25;
78842;PMS5003;70542;53.774;-0.352;2023-11-21T23:00:48;19;19;
78842;PMS5003;70542;53.774;-0.352;2023-11-21T23:06:39;23;23;
78842;PMS5003;70542;53.774;-0.352;2023-11-21T23:12:30;22;19;
78842;PMS5003;70542;53.774;-0.352;2023-11-21T23:18:13;14;14;
78842;PMS5003;70542;53.774;-0.352;2023-11-21T23:24:00;24;24;
78842;PMS5003;70542;53.774;-0.352;2023-11-21T23:29:43;16;16;
78842;PMS5003;70542;53.774;-0.352;2023-11-21T23:35:26;18;18;
78842;PMS5003;70542;53.774;-0.352;2023-11-21T23:41:12;28;28;
78842;PMS5003;70542;53.774;-0.352;2023-11-21T23:46:59;20;17;
78842;PMS5003;70542;53.774;-0.352;2023-11-21T23:52:38;19;16;
78842;PMS5003;70542;53.774;-0.352;2023-11-21T23:58:16;24;24;
